Hauptseite
METAR-TAF:

METAR-TAF

Flughäfen :

St Mary’s Airport

Scilly-Inseln, England

Breite: 49-55N, Länge: 006-18W, Höhe: 31 m

Beobachtung

Neuester Wetterbericht von vor 4 Stunden und 54 Minuten, um 16:50 UTC
Wind 11 kt aus West
Temperatur 20°C
Luftfeuchtigkeit 60%
Luftdruck 1016 hPa
Sichtweite 10 km oder mehr
Leicht bewölkt in der Höhe von 3200 ft

METAR: EGHE 161650Z 28011KT 9999 FEW032 20/12 Q1016

Zeit: 22:44 (21:44 UTC)

Prognose

Neuester Wetterbericht von vor 7 Stunden und 43 Minuten, um 14:01 UTC
Gültige Prognose vom 16 um 15 UTC bis 16 um 18 UTC
Wind 10 kt aus West/Nordwest
Sichtweite 10 km oder mehr
Leicht bewölkt in der Höhe von 3500 ft

TAF: EGHE 161401Z 1615/1618 30010KT 9999 FEW035

Wetterbeobachtungen und Prognosen von mehr als 4000 Flughäfen (METAR und TAF Bericht).

Die verfügbaren Stationen werden durch gelbe und rote Markierungen auf der Karte dargestellt.

Führen Sie die Maus auf sie, um den Namen der Station zu sehen.

Darauf klicken, um die Beobachtung von Wetterbeobachtungen und Prognosen zu sehen.

Um die Karte zu ändern : klicken Sie auf den grünen Tasten mit einem schwarzen Kreuz Zum Vergrößern, auf den grünen Button mit einem Gedankenstrich zu verkleinern, oder auf die grünen Pfeile für benachbarte Karten.


METAR-TAF: